createdAt,value
2022-11-21T00:01:35.178Z,-5.98
2022-11-21T00:04:01.830Z,-5.95
2022-11-21T00:06:28.462Z,-5.90
2022-11-21T00:08:56.631Z,-5.81
2022-11-21T00:11:23.228Z,-5.97
2022-11-21T00:13:49.824Z,-6.11
2022-11-21T00:16:16.744Z,-6.41
2022-11-21T00:18:44.426Z,-6.84
2022-11-21T00:21:16.390Z,-7.07
2022-11-21T00:23:44.024Z,-6.80
2022-11-21T00:26:12.368Z,-6.79
2022-11-21T00:28:39.076Z,-6.82
2022-11-21T00:31:06.223Z,-6.81
2022-11-21T00:33:34.696Z,-6.80
2022-11-21T00:36:07.637Z,-6.81
2022-11-21T00:38:34.267Z,-6.70
2022-11-21T00:41:00.849Z,-6.36
2022-11-21T00:43:27.507Z,-5.93
2022-11-21T00:45:54.086Z,-5.68
2022-11-21T00:48:20.958Z,-5.66
2022-11-21T00:50:50.547Z,-5.85
2022-11-21T00:53:17.169Z,-6.08
2022-11-21T00:55:43.823Z,-6.05
2022-11-21T00:58:10.700Z,-5.83
2022-11-21T01:00:37.338Z,-5.65
2022-11-21T01:03:04.720Z,-5.60
2022-11-21T01:05:33.259Z,-5.57
2022-11-21T01:07:59.883Z,-5.77
2022-11-21T01:10:26.679Z,-5.96
2022-11-21T01:12:53.246Z,-5.98
2022-11-21T01:15:19.857Z,-6.04
2022-11-21T01:17:46.497Z,-6.05
2022-11-21T01:20:13.472Z,-6.01
2022-11-21T01:22:40.072Z,-5.99
2022-11-21T01:25:07.141Z,-5.97
2022-11-21T01:27:34.240Z,-5.93
2022-11-21T01:30:00.904Z,-5.88
2022-11-21T01:32:27.540Z,-5.80
2022-11-21T01:34:54.128Z,-5.75
2022-11-21T01:37:20.836Z,-5.64
2022-11-21T01:39:47.734Z,-5.58
2022-11-21T01:42:14.388Z,-5.49
2022-11-21T01:44:53.689Z,-5.44
2022-11-21T01:47:22.914Z,-5.41
2022-11-21T01:49:51.133Z,-5.34
2022-11-21T01:52:23.991Z,-5.31
2022-11-21T01:54:59.170Z,-5.23
2022-11-21T01:57:30.253Z,-5.15
2022-11-21T02:00:08.510Z,-5.09
2022-11-21T02:02:39.961Z,-5.05
2022-11-21T02:05:11.318Z,-5.05
2022-11-21T02:07:41.957Z,-5.06
2022-11-21T02:10:09.687Z,-4.96
2022-11-21T02:12:43.625Z,-4.95
2022-11-21T02:15:11.536Z,-4.93
2022-11-21T02:17:38.887Z,-4.94
2022-11-21T02:20:11.356Z,-4.92
2022-11-21T02:22:59.455Z,-4.85
2022-11-21T02:25:30.835Z,-4.79
2022-11-21T02:28:01.934Z,-4.72
2022-11-21T02:30:33.791Z,-4.65
2022-11-21T02:33:00.366Z,-4.60
2022-11-21T02:35:27.017Z,-4.54
2022-11-21T02:38:23.965Z,-4.45
2022-11-21T02:41:18.683Z,-4.42
2022-11-21T02:43:52.970Z,-4.33
2022-11-21T02:46:19.691Z,-4.33
2022-11-21T02:48:47.336Z,-4.30
2022-11-21T02:51:14.022Z,-4.26
2022-11-21T02:53:40.659Z,-4.23
2022-11-21T02:56:07.381Z,-4.19
2022-11-21T02:58:34.242Z,-4.15
2022-11-21T03:01:02.065Z,-4.12
2022-11-21T03:03:28.818Z,-4.06
2022-11-21T03:05:56.633Z,-4.03
2022-11-21T03:08:24.527Z,-4.02
2022-11-21T03:10:51.127Z,-3.98
2022-11-21T03:13:17.812Z,-3.93
2022-11-21T03:15:44.367Z,-3.87
2022-11-21T03:18:10.946Z,-3.83
2022-11-21T03:20:37.580Z,-3.77
2022-11-21T03:23:04.867Z,-3.72
2022-11-21T03:25:31.569Z,-3.68
2022-11-21T03:27:58.269Z,-3.65
2022-11-21T03:30:27.178Z,-3.56
2022-11-21T03:32:57.868Z,-3.55
2022-11-21T03:35:26.537Z,-3.53
2022-11-21T03:37:53.709Z,-3.47
2022-11-21T03:40:20.484Z,-3.47
2022-11-21T03:42:47.388Z,-3.43
2022-11-21T03:45:14.036Z,-3.39
2022-11-21T03:47:41.461Z,-3.36
2022-11-21T03:50:08.497Z,-3.35
2022-11-21T03:52:35.140Z,-3.33
2022-11-21T03:55:01.801Z,-3.33
2022-11-21T03:57:28.367Z,-3.33
2022-11-21T03:59:55.257Z,-3.31
2022-11-21T04:02:22.142Z,-3.33
2022-11-21T04:04:49.204Z,-3.35
2022-11-21T04:07:16.641Z,-3.38
2022-11-21T04:09:43.392Z,-3.38
2022-11-21T04:12:12.321Z,-3.36
2022-11-21T04:14:39.205Z,-3.37
2022-11-21T04:17:05.883Z,-3.37
2022-11-21T04:19:32.563Z,-3.39
2022-11-21T04:21:59.138Z,-3.40
2022-11-21T04:24:26.065Z,-3.42
2022-11-21T04:26:55.345Z,-3.40
2022-11-21T04:29:21.974Z,-3.39
2022-11-21T04:31:48.527Z,-3.38
2022-11-21T04:34:15.172Z,-3.36
2022-11-21T04:36:41.808Z,-3.35
2022-11-21T04:39:08.477Z,-3.34
2022-11-21T04:41:35.088Z,-3.33
2022-11-21T04:44:01.985Z,-3.32
2022-11-21T04:46:28.593Z,-3.30
2022-11-21T04:48:56.654Z,-3.26
2022-11-21T04:51:23.325Z,-3.27
2022-11-21T04:53:49.880Z,-3.22
2022-11-21T04:56:16.754Z,-3.18
2022-11-21T04:58:45.007Z,-3.20
2022-11-21T05:01:12.309Z,-3.16
2022-11-21T05:03:39.273Z,-3.10
2022-11-21T05:06:05.911Z,-3.05
2022-11-21T05:08:32.552Z,-2.97
2022-11-21T05:11:18.217Z,-2.95
2022-11-21T05:13:45.104Z,-2.93
2022-11-21T05:16:11.677Z,-2.87
2022-11-21T05:18:38.312Z,-2.85
2022-11-21T05:21:05.031Z,-2.80
2022-11-21T05:23:31.666Z,-2.78
2022-11-21T05:25:58.240Z,-2.78
2022-11-21T05:28:24.911Z,-2.73
2022-11-21T05:30:51.529Z,-2.74
2022-11-21T05:33:20.912Z,-2.73
2022-11-21T05:35:47.589Z,-2.71
2022-11-21T05:38:14.300Z,-2.71
2022-11-21T05:40:40.927Z,-2.73
2022-11-21T05:43:26.610Z,-2.72
2022-11-21T05:45:53.305Z,-2.73
2022-11-21T05:48:20.010Z,-2.70
2022-11-21T05:50:50.079Z,-2.68
2022-11-21T05:53:17.100Z,-2.67
2022-11-21T05:55:44.397Z,-2.65
2022-11-21T05:58:11.116Z,-2.66
2022-11-21T06:00:38.427Z,-2.66
2022-11-21T06:03:24.977Z,-2.69
2022-11-21T06:05:51.557Z,-2.68
2022-11-21T06:08:18.245Z,-2.69
2022-11-21T06:10:44.856Z,-2.69
2022-11-21T06:13:22.334Z,-2.69
2022-11-21T06:16:01.266Z,-2.71
2022-11-21T06:18:29.195Z,-2.73
2022-11-21T06:21:01.785Z,-2.74
2022-11-21T06:23:28.382Z,-2.71
2022-11-21T06:25:59.151Z,-2.75
2022-11-21T06:28:27.147Z,-2.75
2022-11-21T06:30:53.864Z,-2.74
2022-11-21T06:33:20.586Z,-2.74
2022-11-21T06:35:47.229Z,-2.74
2022-11-21T06:38:13.919Z,-2.75
2022-11-21T06:40:40.984Z,-2.77
2022-11-21T06:43:07.568Z,-2.74
2022-11-21T06:45:34.156Z,-2.75
2022-11-21T06:48:03.969Z,-2.75
2022-11-21T06:50:38.141Z,-2.74
2022-11-21T06:53:04.878Z,-2.74
2022-11-21T06:55:32.004Z,-2.71
2022-11-21T06:57:59.437Z,-2.65
2022-11-21T07:00:28.269Z,-2.63
2022-11-21T07:03:02.950Z,-2.58
2022-11-21T07:05:31.596Z,-2.57
2022-11-21T07:08:01.851Z,-2.53
2022-11-21T07:10:29.757Z,-2.49
2022-11-21T07:13:19.090Z,-2.41
2022-11-21T07:15:47.329Z,-2.36
2022-11-21T07:18:14.343Z,-2.29
2022-11-21T07:20:41.611Z,-2.24
2022-11-21T07:23:09.420Z,-2.21
2022-11-21T07:25:36.911Z,-2.16
2022-11-21T07:28:04.398Z,-2.14
2022-11-21T07:30:31.032Z,-2.08
2022-11-21T07:33:06.001Z,-2.05
2022-11-21T07:35:34.192Z,-1.96
2022-11-21T07:38:01.459Z,-1.86
2022-11-21T07:40:28.207Z,-1.78
2022-11-21T07:43:02.260Z,-1.71
2022-11-21T07:45:31.218Z,-1.62
2022-11-21T07:48:01.677Z,-1.63
2022-11-21T07:50:28.962Z,-1.56
2022-11-21T07:53:06.758Z,-1.46
2022-11-21T07:55:40.174Z,-1.38
2022-11-21T07:58:14.164Z,-1.30
2022-11-21T08:00:45.534Z,-1.21
2022-11-21T08:03:13.391Z,-1.11
2022-11-21T08:05:42.547Z,-1.02
2022-11-21T08:08:10.560Z,-0.95
2022-11-21T08:10:44.058Z,-0.87
2022-11-21T08:13:11.832Z,-0.80
2022-11-21T08:15:38.554Z,-0.76
2022-11-21T08:18:10.588Z,-0.66
2022-11-21T08:20:37.234Z,-0.57
2022-11-21T08:23:04.598Z,-0.56
2022-11-21T08:25:31.254Z,-0.49
2022-11-21T08:27:58.584Z,-0.38
2022-11-21T08:30:26.553Z,-0.34
2022-11-21T08:32:53.145Z,-0.30
2022-11-21T08:35:19.972Z,-0.22
2022-11-21T08:37:46.644Z,-0.15
2022-11-21T08:40:13.192Z,-0.15
2022-11-21T08:42:39.777Z,-0.05
2022-11-21T08:45:06.775Z,0.02
2022-11-21T08:47:34.286Z,0.06
2022-11-21T08:50:05.767Z,0.11
2022-11-21T08:52:35.339Z,0.16
2022-11-21T08:55:02.108Z,0.22
2022-11-21T08:57:28.781Z,0.23
2022-11-21T08:59:55.364Z,0.30
2022-11-21T09:02:21.938Z,0.35
2022-11-21T09:04:48.588Z,0.44
2022-11-21T09:07:15.232Z,0.48
2022-11-21T09:09:41.857Z,0.55
2022-11-21T09:12:08.487Z,0.62
2022-11-21T09:14:53.578Z,0.70
2022-11-21T09:17:38.599Z,0.80
2022-11-21T09:20:08.009Z,0.89
2022-11-21T09:22:34.671Z,0.96
2022-11-21T09:25:01.298Z,1.06
2022-11-21T09:27:28.305Z,1.14
2022-11-21T09:29:54.893Z,1.22
2022-11-21T09:32:22.117Z,1.30
2022-11-21T09:34:48.716Z,1.34
2022-11-21T09:37:15.498Z,1.39
2022-11-21T09:39:42.128Z,1.44
2022-11-21T09:42:27.182Z,1.47
2022-11-21T09:45:03.980Z,1.49
2022-11-21T09:47:34.804Z,1.51
2022-11-21T09:50:03.364Z,1.58
2022-11-21T09:52:58.481Z,1.65
2022-11-21T09:55:35.054Z,1.70
2022-11-21T09:58:06.556Z,1.79
2022-11-21T10:00:33.263Z,1.86
2022-11-21T10:06:49.978Z,2.07
2022-11-21T10:09:56.774Z,2.11
2022-11-21T10:12:47.405Z,2.10
2022-11-21T10:15:29.290Z,2.27
2022-11-21T10:18:24.366Z,2.46
2022-11-21T10:21:16.012Z,2.68
2022-11-21T10:24:08.976Z,2.66
2022-11-21T10:26:51.836Z,2.66
2022-11-21T10:29:45.663Z,2.71
2022-11-21T10:32:31.783Z,2.74
2022-11-21T10:35:05.727Z,2.82
2022-11-21T10:37:37.171Z,3.00
2022-11-21T10:40:16.313Z,3.22
2022-11-21T10:43:34.082Z,3.42
2022-11-21T10:46:00.686Z,3.49
2022-11-21T10:48:27.311Z,3.46
2022-11-21T10:51:22.384Z,3.31
2022-11-21T10:54:22.138Z,3.25
2022-11-21T10:56:50.747Z,3.13
2022-11-21T10:59:31.225Z,3.12
2022-11-21T11:02:24.846Z,3.11
2022-11-21T11:05:19.265Z,3.15
2022-11-21T11:08:10.224Z,3.16
2022-11-21T11:10:41.017Z,3.12
2022-11-21T11:13:50.302Z,3.16
2022-11-21T11:16:21.864Z,3.23
2022-11-21T11:18:59.041Z,3.27
2022-11-21T11:21:29.017Z,3.34
2022-11-21T11:24:10.245Z,3.38
2022-11-21T11:26:49.116Z,3.41
2022-11-21T11:29:17.142Z,3.41
2022-11-21T11:31:50.309Z,3.42
2022-11-21T11:34:17.278Z,3.45
2022-11-21T11:37:13.144Z,3.47
2022-11-21T11:40:01.504Z,3.50
2022-11-21T11:43:39.934Z,3.56
2022-11-21T11:46:52.136Z,3.63
2022-11-21T11:49:30.628Z,3.66
2022-11-21T11:52:02.445Z,3.65
2022-11-21T11:54:47.045Z,3.59
2022-11-21T11:57:14.126Z,3.52
2022-11-21T11:59:49.114Z,3.50
2022-11-21T12:02:41.105Z,3.49
2022-11-21T12:05:21.228Z,3.47
2022-11-21T12:11:25.283Z,3.49
2022-11-21T12:13:56.436Z,3.63
2022-11-21T12:16:26.819Z,3.60
2022-11-21T12:19:03.004Z,3.51
2022-11-21T12:21:29.558Z,3.37
2022-11-21T12:24:02.242Z,3.18
2022-11-21T12:26:54.769Z,3.20
2022-11-21T12:29:49.917Z,3.11
2022-11-21T12:32:34.241Z,3.01
2022-11-21T12:35:00.763Z,2.73
2022-11-21T12:37:45.586Z,2.54
2022-11-21T12:40:29.082Z,2.46
2022-11-21T12:43:27.376Z,2.43
2022-11-21T12:46:08.009Z,2.41
2022-11-21T12:49:05.036Z,2.38
2022-11-21T12:51:56.476Z,2.27
2022-11-21T12:54:32.139Z,2.10
2022-11-21T12:57:20.762Z,2.01
2022-11-21T13:00:23.407Z,1.96
2022-11-21T13:03:22.613Z,1.97
2022-11-21T13:05:53.619Z,1.89
2022-11-21T13:08:25.285Z,1.87
2022-11-21T13:10:52.352Z,1.89
2022-11-21T13:13:26.345Z,1.87
2022-11-21T13:16:03.027Z,1.86
2022-11-21T13:18:35.917Z,1.87
2022-11-21T13:21:02.597Z,1.86
2022-11-21T13:23:40.474Z,1.86
2022-11-21T13:26:25.225Z,1.85
2022-11-21T13:29:12.997Z,1.86
2022-11-21T13:31:41.742Z,1.83
2022-11-21T13:34:31.132Z,1.85
2022-11-21T13:36:58.289Z,1.79
2022-11-21T13:39:30.214Z,1.75
2022-11-21T13:42:20.819Z,1.67
2022-11-21T13:44:48.378Z,1.61
2022-11-21T13:47:29.840Z,1.51
2022-11-21T13:50:07.894Z,1.52
2022-11-21T13:53:04.242Z,1.45
2022-11-21T13:55:30.870Z,1.40
2022-11-21T13:58:15.460Z,1.31
2022-11-21T14:00:54.493Z,1.26
2022-11-21T14:03:32.071Z,1.21
2022-11-21T14:06:04.342Z,1.21
2022-11-21T14:08:31.407Z,1.28
2022-11-21T14:10:58.569Z,1.13
2022-11-21T14:13:33.100Z,1.09
2022-11-21T14:16:08.971Z,1.05
2022-11-21T14:18:38.953Z,0.97
2022-11-21T14:21:08.364Z,0.91
2022-11-21T14:23:36.629Z,0.85
2022-11-21T14:26:17.993Z,0.82
2022-11-21T14:28:44.988Z,0.79
2022-11-21T14:31:12.915Z,0.73
2022-11-21T14:33:48.134Z,0.67
2022-11-21T14:36:38.390Z,0.60
2022-11-21T14:42:07.107Z,0.50
2022-11-21T14:44:34.573Z,0.48
2022-11-21T14:47:26.406Z,0.40
2022-11-21T14:49:55.596Z,0.35
2022-11-21T14:52:29.253Z,0.35
2022-11-21T14:57:53.676Z,0.25
2022-11-21T15:00:57.988Z,0.22
2022-11-21T15:03:24.018Z,0.18
2022-11-21T15:06:05.718Z,0.14
2022-11-21T15:11:23.505Z,0.05
2022-11-21T15:14:14.930Z,0.01
2022-11-21T15:16:43.615Z,-0.05
2022-11-21T15:19:11.128Z,-0.08
2022-11-21T15:21:46.137Z,-0.14
2022-11-21T15:24:32.427Z,-0.17
2022-11-21T15:26:59.934Z,-0.19
2022-11-21T15:29:27.255Z,-0.25
2022-11-21T15:32:08.116Z,-0.29
2022-11-21T15:34:36.122Z,-0.35
2022-11-21T15:37:17.299Z,-0.42
2022-11-21T15:39:46.209Z,-0.48
2022-11-21T15:42:31.505Z,-0.52
2022-11-21T15:44:59.502Z,-0.54
2022-11-21T15:47:26.215Z,-0.55
2022-11-21T15:49:52.917Z,-0.58
2022-11-21T15:52:19.608Z,-0.60
2022-11-21T15:54:47.315Z,-0.61
2022-11-21T15:57:16.712Z,-0.63
2022-11-21T15:59:46.563Z,-0.68
2022-11-21T16:02:14.550Z,-0.73
2022-11-21T16:04:41.854Z,-0.75
2022-11-21T16:07:08.766Z,-0.80
2022-11-21T16:09:36.256Z,-0.85
2022-11-21T16:12:04.227Z,-0.85
2022-11-21T16:14:30.811Z,-0.89
2022-11-21T16:16:57.438Z,-0.90
2022-11-21T16:19:24.155Z,-0.93
2022-11-21T16:21:51.014Z,-0.89
2022-11-21T16:24:17.717Z,-0.90
2022-11-21T16:26:44.367Z,-0.91
2022-11-21T16:29:11.073Z,-0.91
2022-11-21T16:31:38.082Z,-0.92
2022-11-21T16:34:04.759Z,-0.89
2022-11-21T16:36:33.389Z,-0.89
2022-11-21T16:39:09.032Z,-0.88
2022-11-21T16:41:40.644Z,-0.93
2022-11-21T16:44:17.139Z,-0.94
2022-11-21T16:46:48.235Z,-0.94
2022-11-21T16:49:16.444Z,-0.94
2022-11-21T16:51:44.195Z,-0.97
2022-11-21T16:54:11.129Z,-0.99
2022-11-21T16:56:37.715Z,-1.01
2022-11-21T16:59:04.408Z,-1.00
2022-11-21T17:01:31.296Z,-1.01
2022-11-21T17:03:58.785Z,-1.00
2022-11-21T17:06:29.778Z,-1.01
2022-11-21T17:08:58.578Z,-1.02
2022-11-21T17:11:29.125Z,-1.07
2022-11-21T17:13:58.779Z,-1.11
2022-11-21T17:16:25.948Z,-1.12
2022-11-21T17:18:58.513Z,-1.14
2022-11-21T17:21:26.928Z,-1.16
2022-11-21T17:23:54.038Z,-1.18
2022-11-21T17:26:24.474Z,-1.17
2022-11-21T17:28:56.394Z,-1.16
2022-11-21T17:31:23.792Z,-1.15
2022-11-21T17:33:52.011Z,-1.16
2022-11-21T17:36:24.426Z,-1.19
2022-11-21T17:38:52.061Z,-1.18
2022-11-21T17:41:22.656Z,-1.19
2022-11-21T17:43:49.492Z,-1.22
2022-11-21T17:46:17.753Z,-1.22
2022-11-21T17:48:48.591Z,-1.22
2022-11-21T17:51:22.868Z,-1.21
2022-11-21T17:53:51.215Z,-1.20
2022-11-21T17:56:21.022Z,-1.20
2022-11-21T17:58:48.254Z,-1.17
2022-11-21T18:01:19.862Z,-1.16
2022-11-21T18:03:58.710Z,-1.17
2022-11-21T18:06:28.356Z,-1.15
2022-11-21T18:08:58.622Z,-1.14
2022-11-21T18:11:30.311Z,-1.12
2022-11-21T18:14:00.783Z,-1.10
2022-11-21T18:16:31.803Z,-1.10
2022-11-21T18:18:59.339Z,-1.10
2022-11-21T18:21:28.281Z,-1.12
2022-11-21T18:23:57.227Z,-1.16
2022-11-21T18:26:29.389Z,-1.15
2022-11-21T18:29:20.646Z,-1.16
2022-11-21T18:31:45.287Z,-1.15
2022-11-21T18:34:12.586Z,-1.15
2022-11-21T18:36:40.426Z,-1.16
2022-11-21T18:39:14.080Z,-1.15
2022-11-21T18:41:42.840Z,-1.16
2022-11-21T18:44:10.620Z,-1.15
2022-11-21T18:46:41.929Z,-1.15
2022-11-21T18:49:08.798Z,-1.15
2022-11-21T18:51:36.223Z,-1.13
2022-11-21T18:54:07.257Z,-1.11
2022-11-21T18:56:36.333Z,-1.12
2022-11-21T18:59:07.839Z,-1.19
2022-11-21T19:01:37.609Z,-1.22
2022-11-21T19:04:04.703Z,-1.29
2022-11-21T19:06:31.921Z,-1.28
2022-11-21T19:09:00.018Z,-1.31
2022-11-21T19:11:28.872Z,-1.32
2022-11-21T19:13:56.980Z,-1.32
2022-11-21T19:16:26.537Z,-1.33
2022-11-21T19:19:32.443Z,-1.35
2022-11-21T19:21:45.738Z,-1.40
2022-11-21T19:24:14.871Z,-1.49
2022-11-21T19:26:42.102Z,-1.57
2022-11-21T19:29:09.720Z,-1.62
2022-11-21T19:31:43.107Z,-1.67
2022-11-21T19:34:13.051Z,-1.72
2022-11-21T19:36:39.754Z,-1.72
2022-11-21T19:39:06.469Z,-1.76
2022-11-21T19:41:33.248Z,-1.83
2022-11-21T19:44:01.476Z,-1.88
2022-11-21T19:46:33.476Z,-1.89
2022-11-21T19:49:00.989Z,-1.95
2022-11-21T19:51:48.429Z,-1.99
2022-11-21T19:54:16.431Z,-2.02
2022-11-21T19:56:44.861Z,-2.04
2022-11-21T19:59:15.164Z,-2.10
2022-11-21T20:01:45.907Z,-2.17
2022-11-21T20:04:14.928Z,-2.24
2022-11-21T20:06:46.225Z,-2.29
2022-11-21T20:09:16.923Z,-2.34
2022-11-21T20:11:48.652Z,-2.39
2022-11-21T20:14:21.831Z,-2.41
2022-11-21T20:16:49.935Z,-2.39
2022-11-21T20:19:20.388Z,-2.35
2022-11-21T20:21:47.480Z,-2.26
2022-11-21T20:24:14.426Z,-2.19
2022-11-21T20:26:42.013Z,-2.18
2022-11-21T20:29:11.094Z,-2.09
2022-11-21T20:31:38.234Z,-2.07
2022-11-21T20:34:12.866Z,-2.01
2022-11-21T20:36:40.125Z,-1.97
2022-11-21T20:39:17.881Z,-1.92
2022-11-21T20:41:45.639Z,-1.89
2022-11-21T20:45:07.281Z,-1.86
2022-11-21T20:47:00.482Z,-1.83
2022-11-21T20:49:27.537Z,-1.83
2022-11-21T20:53:36.911Z,-1.83
2022-11-21T20:54:42.456Z,-1.77
2022-11-21T20:57:14.458Z,-1.71
2022-11-21T20:59:47.953Z,-1.70
2022-11-21T21:04:56.766Z,-1.74
2022-11-21T21:10:20.482Z,-1.70
2022-11-21T21:18:18.031Z,-1.65
2022-11-21T21:21:15.037Z,-1.61
2022-11-21T21:23:31.156Z,-1.59
2022-11-21T21:28:36.009Z,-1.60
2022-11-21T21:31:10.109Z,-1.59
2022-11-21T21:33:39.663Z,-1.62
2022-11-21T21:38:42.256Z,-1.63
2022-11-21T21:41:16.738Z,-1.58
2022-11-21T21:43:43.670Z,-1.60
2022-11-21T21:46:15.340Z,-1.54
2022-11-21T21:48:43.606Z,-1.56
2022-11-21T21:51:15.551Z,-1.58
2022-11-21T21:53:44.093Z,-1.54
2022-11-21T21:56:11.797Z,-1.56
2022-11-21T21:58:40.774Z,-1.55
2022-11-21T22:01:11.815Z,-1.53
2022-11-21T22:03:39.199Z,-1.52
2022-11-21T22:06:08.434Z,-1.52
2022-11-21T22:08:36.206Z,-1.53
2022-11-21T22:11:17.105Z,-1.52
2022-11-21T22:13:45.819Z,-1.55
2022-11-21T22:16:14.620Z,-1.53
2022-11-21T22:18:42.083Z,-1.51
2022-11-21T22:21:29.745Z,-1.50
2022-11-21T22:26:45.442Z,-1.51
2022-11-21T22:29:12.116Z,-1.52
2022-11-21T22:31:39.105Z,-1.53
2022-11-21T22:34:05.901Z,-1.51
2022-11-21T22:36:32.547Z,-1.52
2022-11-21T22:38:59.597Z,-1.52
2022-11-21T22:41:28.020Z,-1.52
2022-11-21T22:43:57.471Z,-1.50
2022-11-21T22:46:25.614Z,-1.51
2022-11-21T22:48:52.191Z,-1.50
2022-11-21T22:51:22.930Z,-1.47
2022-11-21T22:53:50.399Z,-1.47
2022-11-21T22:56:22.906Z,-1.45
2022-11-21T22:58:50.450Z,-1.46
2022-11-21T23:01:20.425Z,-1.44
2022-11-21T23:03:47.157Z,-1.45
2022-11-21T23:06:17.311Z,-1.45
2022-11-21T23:08:44.713Z,-1.42
2022-11-21T23:11:39.236Z,-1.42
2022-11-21T23:14:09.542Z,-1.43
2022-11-21T23:16:36.135Z,-1.41
2022-11-21T23:19:02.791Z,-1.42
2022-11-21T23:21:30.426Z,-1.43
2022-11-21T23:23:57.006Z,-1.39
2022-11-21T23:26:28.011Z,-1.39
2022-11-21T23:28:55.888Z,-1.40
2022-11-21T23:31:22.833Z,-1.37
2022-11-21T23:33:49.441Z,-1.37
2022-11-21T23:36:16.222Z,-1.36
2022-11-21T23:38:42.824Z,-1.32
2022-11-21T23:41:11.176Z,-1.30
2022-11-21T23:43:40.069Z,-1.28
2022-11-21T23:46:07.610Z,-1.28
2022-11-21T23:48:34.233Z,-1.27
2022-11-21T23:51:00.941Z,-1.27
2022-11-21T23:53:27.698Z,-1.24
2022-11-21T23:55:54.351Z,-1.22
2022-11-21T23:58:23.846Z,-1.20
